Time,TemperatureF,DewpointF,PressureIn,WindDirection,WindDirectionDegrees,WindSpeedMPH,WindSpeedGustMPH,Humidity,HourlyPrecipIn,Conditions,Clouds,dailyrainin,SolarRadiationWatts/m^2,SoftwareType,DateUTC
2013-02-06 00:00:00,59.8,55.3,30.03,ESE,121,2.3,2.3,85,0.00,CLR,,0.00,0.0,WeatherDisplay:10.37,2013-02-06 05:00:00,
2013-02-06 00:05:00,60.1,55.6,30.02,ESE,122,2.3,2.3,85,0.00,CLR,,0.00,0.0,WeatherDisplay:10.37,2013-02-06 05:05:00,
2013-02-06 00:16:00,60.7,55.8,30.03,ESE,122,3.4,3.4,84,0.00,CLR,,0.00,0.0,WeatherDisplay:10.37,2013-02-06 05:16:00,
2013-02-06 00:56:00,60.4,56.2,30.02,ESE,122,2.3,2.3,86,0.00,CLR,,0.00,0.0,WeatherDisplay:10.37,2013-02-06 05:56:00,
2013-02-06 01:00:00,60.2,56.6,30.02,ESE,122,3.4,3.4,88,0.00,CLR,,0.00,0.0,WeatherDisplay:10.37,2013-02-06 06:00:00,
2013-02-06 01:01:00,60.4,56.5,30.02,ESE,122,3.4,3.4,87,0.00,CLR,,0.00,0.0,WeatherDisplay:10.37,2013-02-06 06:01:00,
2013-02-06 01:06:00,60.3,56.4,30.02,ESE,122,3.4,3.4,87,0.00,CLR,,0.00,0.0,WeatherDisplay:10.37,2013-02-06 06:06:00,
2013-02-06 01:29:00,60.9,56.4,30.02,ESE,105,3.4,3.4,85,0.00,CLR,,0.00,0.0,WeatherDisplay:10.37,2013-02-06 06:29:00,
2013-02-06 01:52:00,60.5,55.3,30.02,ESE,105,1.1,1.4,83,0.00,CLR,,0.00,0.0,WeatherDisplay:10.37,2013-02-06 06:52:00,
2013-02-06 01:57:00,60.3,55.4,30.03,ESE,105,3.4,3.4,84,0.00,CLR,,0.00,0.0,WeatherDisplay:10.37,2013-02-06 06:57:00,
2013-02-06 02:00:00,59.7,54.9,30.02,ESE,105,3.4,3.4,84,0.00,CLR,,0.00,0.0,WeatherDisplay:10.37,2013-02-06 07:00:00,
2013-02-06 02:02:00,60.0,55.2,30.02,ESE,105,3.4,3.4,84,0.00,CLR,,0.00,0.0,WeatherDisplay:10.37,2013-02-06 07:02:00,
2013-02-06 02:07:00,59.8,55.0,30.03,ESE,105,2.3,2.3,84,0.00,CLR,,0.00,0.0,WeatherDisplay:10.37,2013-02-06 07:07:00,
2013-02-06 02:18:00,59.5,55.0,30.02,ESE,105,2.3,2.3,85,0.00,CLR,,0.00,0.0,WeatherDisplay:10.37,2013-02-06 07:18:00,
2013-02-06 02:25:00,59.3,54.8,30.02,ESE,105,1.1,1.1,85,0.00,CLR,,0.00,0.0,WeatherDisplay:10.37,2013-02-06 07:25:00,
2013-02-06 02:50:00,59.0,54.8,30.02,ESE,105,3.4,3.4,86,0.00,CLR,,0.00,0.0,WeatherDisplay:10.37,2013-02-06 07:50:00,
2013-02-06 02:56:00,59.2,55.0,30.02,ESE,105,0.0,0.0,86,0.00,CLR,,0.00,0.0,WeatherDisplay:10.37,2013-02-06 07:56:00,
2013-02-06 03:00:00,59.6,55.1,30.01,ESE,105,1.1,0.0,85,0.00,CLR,,0.00,0.0,WeatherDisplay:10.37,2013-02-06 08:00:00,
2013-02-06 03:01:00,59.4,55.2,30.01,ESE,105,2.3,2.3,86,0.00,CLR,,0.00,0.0,WeatherDisplay:10.37,2013-02-06 08:01:00,
2013-02-06 03:06:00,59.5,55.3,30.01,ESE,105,2.3,2.3,86,0.00,CLR,,0.00,0.0,WeatherDisplay:10.37,2013-02-06 08:06:00,
2013-02-06 03:44:00,59.7,55.2,30.02,ESE,105,0.0,0.0,85,0.00,CLR,,0.00,0.0,WeatherDisplay:10.37,2013-02-06 08:44:00,
2013-02-06 03:56:00,59.7,54.9,30.02,ESE,105,3.4,3.4,84,0.00,CLR,,0.00,0.0,WeatherDisplay:10.37,2013-02-06 08:56:00,
2013-02-06 04:00:00,59.6,54.8,30.01,ESE,115,4.0,4.0,84,0.00,CLR,,0.00,0.0,WeatherDisplay:10.37,2013-02-06 09:00:00,
2013-02-06 04:01:00,59.6,54.8,30.02,ESE,105,4.6,4.6,84,0.00,CLR,,0.00,0.0,WeatherDisplay:10.37,2013-02-06 09:01:00,
2013-02-06 04:06:00,59.6,54.8,30.01,ESE,105,3.4,3.4,84,0.00,CLR,,0.00,0.0,WeatherDisplay:10.37,2013-02-06 09:06:00,
2013-02-06 04:23:00,59.9,54.7,30.01,ESE,116,5.0,5.0,83,0.00,CLR,,0.00,0.0,WeatherDisplay:10.37,2013-02-06 09:23:00,
2013-02-06 04:55:00,60.9,55.0,30.01,ESE,109,3.4,3.4,81,0.00,CLR,,0.00,0.0,WeatherDisplay:10.37,2013-02-06 09:55:00,
2013-02-06 05:00:00,61.0,54.8,30.02,ESE,113,3.4,3.4,80,0.00,CLR,,0.00,0.0,WeatherDisplay:10.37,2013-02-06 10:00:00,
2013-02-06 05:05:00,61.1,54.9,30.02,ESE,113,3.4,3.4,80,0.00,CLR,,0.00,0.0,WeatherDisplay:10.37,2013-02-06 10:05:00,
2013-02-06 05:21:00,61.2,55.0,30.02,ESE,113,3.4,3.4,80,0.00,CLR,,0.00,0.0,WeatherDisplay:10.37,2013-02-06 10:21:00,
2013-02-06 05:29:00,61.2,55.0,30.02,ESE,114,3.4,3.4,80,0.00,CLR,,0.00,0.0,WeatherDisplay:10.37,2013-02-06 10:29:00,
2013-02-06 05:44:00,61.1,54.9,30.02,ESE,114,4.6,4.6,80,0.00,CLR,,0.00,0.0,WeatherDisplay:10.37,2013-02-06 10:44:00,
2013-02-06 05:55:00,61.1,54.9,30.03,ESE,114,3.4,3.4,80,0.00,CLR,,0.00,0.0,WeatherDisplay:10.37,2013-02-06 10:55:00,
2013-02-06 06:00:00,61.0,54.8,30.03,ESE,114,3.4,3.4,80,0.00,CLR,,0.00,0.0,WeatherDisplay:10.37,2013-02-06 11:00:00,
2013-02-06 06:05:00,60.9,55.0,30.03,ESE,114,3.4,3.4,81,0.00,CLR,,0.00,0.0,WeatherDisplay:10.37,2013-02-06 11:05:00,
2013-02-06 06:10:00,60.9,54.7,30.03,ESE,114,3.4,3.4,80,0.00,CLR,,0.00,0.0,WeatherDisplay:10.37,2013-02-06 11:10:00,
2013-02-06 06:24:00,61.1,54.9,30.03,ESE,110,3.4,3.4,80,0.00,CLR,,0.00,0.0,WeatherDisplay:10.37,2013-02-06 11:24:00,
2013-02-06 06:29:00,61.2,55.0,30.03,ESE,112,3.4,3.4,80,0.00,CLR,,0.00,0.0,WeatherDisplay:10.37,2013-02-06 11:29:00,
2013-02-06 06:56:00,61.2,55.0,30.04,ESE,116,3.4,3.4,80,0.00,CLR,,0.00,0.0,WeatherDisplay:10.37,2013-02-06 11:56:00,
2013-02-06 07:00:00,61.3,55.1,30.05,ESE,114,6.9,6.9,80,0.00,OVC,,0.00,0.0,WeatherDisplay:10.37,2013-02-06 12:00:00,
2013-02-06 07:01:00,61.2,55.0,30.04,ESE,115,3.4,3.4,80,0.00,OVC,,0.00,0.0,WeatherDisplay:10.37,2013-02-06 12:01:00,
2013-02-06 07:06:00,61.3,55.1,30.05,ESE,115,3.4,3.4,80,0.00,OVC,,0.00,0.0,WeatherDisplay:10.37,2013-02-06 12:06:00,
2013-02-06 07:27:00,61.5,54.9,30.05,ESE,115,4.6,4.6,79,0.00,OVC,,0.00,7.0,WeatherDisplay:10.37,2013-02-06 12:27:00,
2013-02-06 07:37:00,61.4,55.2,30.05,ESE,118,4.6,4.6,80,0.00,OVC,,0.00,16.0,WeatherDisplay:10.37,2013-02-06 12:37:00,
2013-02-06 07:56:00,61.8,55.6,30.06,ESE,122,4.6,4.6,80,0.00,OVC,,0.00,37.0,WeatherDisplay:10.37,2013-02-06 12:56:00,
2013-02-06 08:00:00,62.5,55.2,30.06,ESE,117,3.4,3.4,77,0.00,OVC,,0.00,37.0,WeatherDisplay:10.37,2013-02-06 13:00:00,
2013-02-06 08:01:00,62.1,55.5,30.06,ESE,117,4.6,4.6,79,0.00,OVC,,0.00,33.0,WeatherDisplay:10.37,2013-02-06 13:01:00,
2013-02-06 08:06:00,62.3,55.4,30.06,ESE,116,4.6,4.6,78,0.00,OVC,,0.00,33.0,WeatherDisplay:10.37,2013-02-06 13:06:00,
2013-02-06 08:36:00,63.5,55.4,30.07,ESE,114,3.4,3.4,75,0.00,OVC,,0.00,63.0,WeatherDisplay:10.37,2013-02-06 13:36:00,
2013-02-06 08:42:00,63.7,56.0,30.07,ESE,113,3.4,3.4,76,0.00,OVC,,0.00,69.0,WeatherDisplay:10.37,2013-02-06 13:42:00,
2013-02-06 08:48:00,63.8,55.7,30.08,ESE,113,3.4,3.4,75,0.00,OVC,,0.00,63.0,WeatherDisplay:10.37,2013-02-06 13:48:00,
2013-02-06 08:56:00,64.0,55.5,30.08,ESE,118,7.0,7.0,74,0.00,OVC,,0.00,72.0,WeatherDisplay:10.37,2013-02-06 13:56:00,
2013-02-06 09:00:00,64.6,55.7,30.08,ESE,119,5.0,5.0,73,0.00,OVC,,0.00,98.0,WeatherDisplay:10.37,2013-02-06 14:00:00,
2013-02-06 09:01:00,64.1,55.6,30.08,ESE,119,3.4,3.4,74,0.00,OVC,,0.00,84.0,WeatherDisplay:10.37,2013-02-06 14:01:00,
2013-02-06 09:06:00,64.3,55.8,30.08,ESE,113,4.6,4.6,74,0.00,OVC,,0.00,100.0,WeatherDisplay:10.37,2013-02-06 14:06:00,
2013-02-06 09:12:00,64.8,55.9,30.08,ESE,115,3.4,3.4,73,0.00,OVC,,0.00,95.0,WeatherDisplay:10.37,2013-02-06 14:12:00,
2013-02-06 09:19:00,65.2,56.3,30.08,ESE,113,5.0,5.0,73,0.00,OVC,,0.00,95.0,WeatherDisplay:10.37,2013-02-06 14:19:00,
2013-02-06 09:33:00,65.8,56.1,30.08,SE,126,8.1,8.1,71,0.00,OVC,,0.00,105.0,WeatherDisplay:10.37,2013-02-06 14:33:00,
2013-02-06 09:47:00,66.6,56.5,30.09,ESE,118,4.0,4.0,70,0.00,OVC,,0.00,141.0,WeatherDisplay:10.37,2013-02-06 14:47:00,
2013-02-06 09:56:00,67.7,56.3,30.09,ESE,105,8.1,8.1,67,0.00,OVC,,0.00,227.0,WeatherDisplay:10.37,2013-02-06 14:56:00,
2013-02-06 10:00:00,68.8,57.0,30.09,ESE,123,7.0,7.0,66,0.00,OVC,,0.00,274.0,WeatherDisplay:10.37,2013-02-06 15:00:00,
2013-02-06 10:01:00,68.3,56.9,30.09,SE,132,6.0,6.0,67,0.00,OVC,,0.00,241.0,WeatherDisplay:10.37,2013-02-06 15:01:00,
2013-02-06 10:06:00,68.6,56.8,30.09,East,93,10.3,10.3,66,0.00,OVC,,0.00,211.0,WeatherDisplay:10.37,2013-02-06 15:06:00,
2013-02-06 10:37:00,71.8,57.2,30.09,SE,127,11.5,11.5,60,0.00,OVC,,0.00,221.0,WeatherDisplay:10.37,2013-02-06 15:37:00,
2013-02-06 10:47:00,73.1,57.9,30.09,SSE,155,10.3,10.3,59,0.00,SCT,,0.00,587.0,WeatherDisplay:10.37,2013-02-06 15:47:00,
2013-02-06 10:52:00,72.6,57.4,30.09,SE,146,13.8,13.8,59,0.00,BKN,,0.00,552.0,WeatherDisplay:10.37,2013-02-06 15:52:00,
2013-02-06 10:57:00,73.3,57.6,30.09,SE,139,9.2,9.2,58,0.00,BKN,,0.00,297.0,WeatherDisplay:10.37,2013-02-06 15:57:00,
2013-02-06 11:00:00,72.8,57.6,30.09,SE,136,11.5,11.5,59,0.00,OVC,,0.00,214.0,WeatherDisplay:10.37,2013-02-06 16:00:00,
2013-02-06 11:02:00,72.8,57.2,30.09,ESE,109,13.8,13.8,58,0.00,OVC,,0.00,262.0,WeatherDisplay:10.37,2013-02-06 16:02:00,
2013-02-06 11:07:00,72.5,57.4,30.09,SSE,155,6.9,6.9,59,0.00,OVC,,0.00,229.0,WeatherDisplay:10.37,2013-02-06 16:07:00,
2013-02-06 11:17:00,72.2,57.1,30.09,SSE,153,8.1,8.1,59,0.00,OVC,,0.00,251.0,WeatherDisplay:10.37,2013-02-06 16:17:00,
2013-02-06 11:56:00,73.5,57.8,30.08,SE,140,11.5,11.5,58,0.00,OVC,,0.00,271.0,WeatherDisplay:10.37,2013-02-06 16:56:00,
2013-02-06 12:00:00,73.6,58.4,30.09,SSE,159,10.0,10.0,59,0.00,OVC,,0.00,357.0,WeatherDisplay:10.37,2013-02-06 17:00:00,
2013-02-06 12:01:00,73.4,58.2,30.08,ESE,105,5.8,5.8,59,0.00,OVC,,0.00,257.0,WeatherDisplay:10.37,2013-02-06 17:01:00,
2013-02-06 12:06:00,73.4,57.7,30.08,SE,139,10.3,10.3,58,0.00,OVC,,0.00,299.0,WeatherDisplay:10.37,2013-02-06 17:06:00,
2013-02-06 12:13:00,73.4,58.2,30.08,SE,137,8.0,8.0,59,0.00,OVC,,0.00,276.0,WeatherDisplay:10.37,2013-02-06 17:13:00,
2013-02-06 12:25:00,73.3,58.6,30.09,ESE,116,5.0,5.0,60,0.00,OVC,,0.00,220.0,WeatherDisplay:10.37,2013-02-06 17:25:00,
2013-02-06 12:36:00,73.8,58.6,30.08,SE,140,10.3,10.3,59,0.00,OVC,,0.00,279.0,WeatherDisplay:10.37,2013-02-06 17:36:00,
2013-02-06 12:41:00,73.5,58.8,30.07,ESE,104,8.0,8.0,60,0.00,OVC,,0.00,366.0,WeatherDisplay:10.37,2013-02-06 17:41:00,
2013-02-06 12:55:00,74.1,58.9,30.06,ESE,121,5.8,5.8,59,0.00,OVC,,0.00,234.0,WeatherDisplay:10.37,2013-02-06 17:55:00,
2013-02-06 13:00:00,74.8,59.5,30.06,SE,127,4.0,4.0,59,0.00,OVC,,0.00,234.0,WeatherDisplay:10.37,2013-02-06 18:00:00,
2013-02-06 13:05:00,74.4,58.7,30.06,SE,126,5.8,5.8,58,0.00,OVC,,0.00,211.0,WeatherDisplay:10.37,2013-02-06 18:05:00,
2013-02-06 13:19:00,74.4,59.6,30.06,ESE,116,2.3,2.3,60,0.00,OVC,,0.00,188.0,WeatherDisplay:10.37,2013-02-06 18:19:00,
2013-02-06 13:27:00,74.2,58.9,30.05,ESE,120,3.4,3.4,59,0.00,OVC,,0.00,172.0,WeatherDisplay:10.37,2013-02-06 18:27:00,
2013-02-06 13:45:00,73.5,60.6,30.05,WNW,287,4.6,4.6,64,0.00,OVC,,0.00,158.0,WeatherDisplay:10.37,2013-02-06 18:45:00,
2013-02-06 13:56:00,72.1,60.1,30.05,WNW,295,4.6,4.6,66,0.00,OVC,,0.00,209.0,WeatherDisplay:10.37,2013-02-06 18:56:00,
2013-02-06 14:00:00,71.6,60.1,30.04,West,264,4.6,4.6,67,0.00,OVC,,0.00,146.0,WeatherDisplay:10.37,2013-02-06 19:00:00,
2013-02-06 14:01:00,72.0,60.0,30.05,WNW,298,4.6,4.6,66,0.00,OVC,,0.00,197.0,WeatherDisplay:10.37,2013-02-06 19:01:00,
2013-02-06 14:06:00,71.7,59.7,30.04,NW,314,4.6,4.6,66,0.00,OVC,,0.00,167.0,WeatherDisplay:10.37,2013-02-06 19:06:00,
2013-02-06 14:32:00,71.1,59.2,30.05,WNW,283,5.8,5.8,66,0.00,OVC,,0.00,160.0,WeatherDisplay:10.37,2013-02-06 19:32:00,
2013-02-06 14:54:00,70.9,59.4,30.05,WNW,303,4.6,4.6,67,0.00,OVC,,0.00,163.0,WeatherDisplay:10.37,2013-02-06 19:54:00,
2013-02-06 14:59:00,71.6,59.6,30.05,West,263,3.4,3.4,66,0.00,OVC,,0.00,174.0,WeatherDisplay:10.37,2013-02-06 19:59:00,
2013-02-06 15:00:00,71.6,59.6,30.04,SW,234,4.6,4.6,66,0.00,OVC,,0.00,183.0,WeatherDisplay:10.37,2013-02-06 20:00:00,
2013-02-06 15:04:00,71.9,60.3,30.05,SW,233,3.4,3.4,67,0.00,OVC,,0.00,167.0,WeatherDisplay:10.37,2013-02-06 20:04:00,
2013-02-06 15:09:00,71.7,59.7,30.04,WSW,248,5.0,5.0,66,0.00,OVC,,0.00,183.0,WeatherDisplay:10.37,2013-02-06 20:09:00,
2013-02-06 15:17:00,71.2,59.7,30.04,West,281,3.4,3.4,67,0.00,OVC,,0.00,174.0,WeatherDisplay:10.37,2013-02-06 20:17:00,
2013-02-06 15:34:00,71.1,59.6,30.04,WNW,291,3.4,3.4,67,0.00,OVC,,0.00,158.0,WeatherDisplay:10.37,2013-02-06 20:34:00,
2013-02-06 15:56:00,70.9,59.0,30.03,NW,317,4.6,4.6,66,0.00,OVC,,0.00,142.0,WeatherDisplay:10.37,2013-02-06 20:56:00,
2013-02-06 16:00:00,71.4,59.4,30.03,WNW,288,3.4,3.4,66,0.00,FEW,,0.00,422.0,WeatherDisplay:10.37,2013-02-06 21:00:00,
2013-02-06 16:01:00,70.9,59.4,30.03,WSW,254,2.3,2.3,67,0.00,OVC,,0.00,134.0,WeatherDisplay:10.37,2013-02-06 21:01:00,
2013-02-06 16:06:00,70.7,59.2,30.03,WNW,288,3.4,3.4,67,0.00,OVC,,0.00,162.0,WeatherDisplay:10.37,2013-02-06 21:06:00,
2013-02-06 16:15:00,71.3,59.4,30.03,WNW,292,4.0,4.0,66,0.00,SCT,,0.00,360.0,WeatherDisplay:10.37,2013-02-06 21:15:00,
2013-02-06 16:27:00,72.2,60.2,30.02,WNW,292,2.3,2.3,66,0.00,SCT,,0.00,278.0,WeatherDisplay:10.37,2013-02-06 21:27:00,
2013-02-06 16:55:00,72.5,61.7,30.02,SW,228,1.1,1.1,69,0.00,OVC,,0.00,69.0,WeatherDisplay:10.37,2013-02-06 21:55:00,
2013-02-06 17:00:00,72.3,62.0,30.02,SW,231,3.4,3.4,70,0.00,SCT,,0.00,192.0,WeatherDisplay:10.37,2013-02-06 22:00:00,
2013-02-06 17:05:00,72.6,61.4,30.02,SW,233,3.4,3.4,68,0.00,SCT,,0.00,176.0,WeatherDisplay:10.37,2013-02-06 22:05:00,
2013-02-06 17:21:00,71.8,61.1,30.02,West,270,2.3,2.3,69,0.00,SCT,,0.00,125.0,WeatherDisplay:10.37,2013-02-06 22:21:00,
2013-02-06 17:43:00,70.8,60.9,30.03,WSW,244,2.3,2.3,71,0.00,OVC,,0.00,23.0,WeatherDisplay:10.37,2013-02-06 22:43:00,
2013-02-06 17:56:00,70.3,60.8,30.03,WSW,244,1.1,1.1,72,0.00,OVC,,0.00,9.0,WeatherDisplay:10.37,2013-02-06 22:56:00,
2013-02-06 18:00:00,69.8,60.8,30.03,WSW,245,2.3,2.3,73,0.00,OVC,,0.00,5.0,WeatherDisplay:10.37,2013-02-06 23:00:00,
2013-02-06 18:01:00,70.0,60.9,30.03,WSW,245,3.4,3.4,73,0.00,OVC,,0.00,7.0,WeatherDisplay:10.37,2013-02-06 23:01:00,
2013-02-06 18:06:00,69.9,60.8,30.03,WSW,245,0.0,0.0,73,0.00,OVC,,0.00,5.0,WeatherDisplay:10.37,2013-02-06 23:06:00,
2013-02-06 18:18:00,69.4,60.0,30.03,West,267,2.3,2.3,72,0.00,OVC,,0.00,0.0,WeatherDisplay:10.37,2013-02-06 23:18:00,
2013-02-06 18:56:00,68.5,60.3,30.04,West,267,2.3,2.3,75,0.00,CLR,,0.00,0.0,WeatherDisplay:10.37,2013-02-06 23:56:00,
2013-02-06 19:00:00,68.1,60.2,30.04,West,267,0.0,0.0,76,0.00,CLR,,0.00,0.0,WeatherDisplay:10.37,2013-02-07 00:00:00,
2013-02-06 19:01:00,68.4,60.5,30.04,West,267,2.3,2.3,76,0.00,CLR,,0.00,0.0,WeatherDisplay:10.37,2013-02-07 00:01:00,
2013-02-06 19:06:00,68.3,60.4,30.04,West,267,0.0,0.0,76,0.00,CLR,,0.00,0.0,WeatherDisplay:10.37,2013-02-07 00:06:00,
2013-02-06 19:34:00,67.1,60.0,30.04,West,267,0.0,0.0,78,0.00,CLR,,0.00,0.0,WeatherDisplay:10.37,2013-02-07 00:34:00,
2013-02-06 19:48:00,66.2,59.8,30.04,West,267,0.0,0.0,80,0.00,CLR,,0.00,0.0,WeatherDisplay:10.37,2013-02-07 00:48:00,
2013-02-06 19:56:00,65.5,59.5,30.05,West,267,0.0,0.0,81,0.00,CLR,,0.00,0.0,WeatherDisplay:10.37,2013-02-07 00:56:00,
2013-02-06 20:00:00,64.8,59.5,30.05,West,267,2.3,2.3,83,0.00,CLR,,0.00,0.0,WeatherDisplay:10.37,2013-02-07 01:00:00,
2013-02-06 20:01:00,65.2,59.6,30.05,West,267,0.0,0.0,82,0.00,CLR,,0.00,0.0,WeatherDisplay:10.37,2013-02-07 01:01:00,
2013-02-06 20:06:00,64.9,59.6,30.05,West,267,2.3,2.3,83,0.00,CLR,,0.00,0.0,WeatherDisplay:10.37,2013-02-07 01:06:00,
2013-02-06 20:11:00,64.7,59.8,30.05,West,267,1.1,0.0,84,0.00,CLR,,0.00,0.0,WeatherDisplay:10.37,2013-02-07 01:11:00,
2013-02-06 20:24:00,64.7,59.4,30.05,West,267,1.1,1.1,83,0.00,CLR,,0.00,0.0,WeatherDisplay:10.37,2013-02-07 01:24:00,
2013-02-06 20:48:00,63.9,59.3,30.06,West,267,0.0,0.0,85,0.00,CLR,,0.00,0.0,WeatherDisplay:10.37,2013-02-07 01:48:00,
2013-02-06 20:56:00,63.6,59.3,30.06,NNE,30,1.1,1.1,86,0.00,CLR,,0.00,0.0,WeatherDisplay:10.37,2013-02-07 01:56:00,
2013-02-06 21:00:00,64.3,60.0,30.06,NE,36,3.4,3.4,86,0.00,CLR,,0.00,0.0,WeatherDisplay:10.37,2013-02-07 02:00:00,
2013-02-06 21:01:00,63.7,59.4,30.06,NNE,31,3.4,3.4,86,0.00,CLR,,0.00,0.0,WeatherDisplay:10.37,2013-02-07 02:01:00,
2013-02-06 21:06:00,64.0,59.7,30.06,NE,36,3.4,3.4,86,0.00,CLR,,0.00,0.0,WeatherDisplay:10.37,2013-02-07 02:06:00,
2013-02-06 21:35:00,64.4,59.8,30.06,NE,37,3.4,3.4,85,0.00,CLR,,0.00,0.0,WeatherDisplay:10.37,2013-02-07 02:35:00,
2013-02-06 21:49:00,65.0,59.7,30.06,NNE,25,2.3,2.3,83,0.00,CLR,,0.00,0.0,WeatherDisplay:10.37,2013-02-07 02:49:00,
2013-02-06 21:56:00,65.1,59.8,30.06,NNE,25,2.3,2.3,83,0.00,CLR,,0.00,0.0,WeatherDisplay:10.37,2013-02-07 02:56:00,
2013-02-06 22:00:00,65.2,59.9,30.05,NNE,31,3.4,3.4,83,0.00,CLR,,0.00,0.0,WeatherDisplay:10.37,2013-02-07 03:00:00,
2013-02-06 22:01:00,65.0,59.7,30.06,NNE,25,3.4,3.4,83,0.00,CLR,,0.00,0.0,WeatherDisplay:10.37,2013-02-07 03:01:00,
2013-02-06 22:06:00,65.1,59.8,30.06,NNE,31,5.8,5.8,83,0.00,CLR,,0.00,0.0,WeatherDisplay:10.37,2013-02-07 03:06:00,
2013-02-06 22:13:00,65.3,60.0,30.05,NNE,31,2.3,2.3,83,0.00,CLR,,0.00,0.0,WeatherDisplay:10.37,2013-02-07 03:13:00,
2013-02-06 22:28:00,65.2,59.6,30.05,NNE,31,3.4,3.4,82,0.00,CLR,,0.00,0.0,WeatherDisplay:10.37,2013-02-07 03:28:00,
2013-02-06 22:34:00,65.1,59.5,30.05,NNE,31,3.4,3.4,82,0.00,CLR,,0.00,0.0,WeatherDisplay:10.37,2013-02-07 03:34:00,
2013-02-06 22:45:00,65.2,59.2,30.05,NNE,31,3.4,3.4,81,0.00,CLR,,0.00,0.0,WeatherDisplay:10.37,2013-02-07 03:45:00,
2013-02-06 22:55:00,65.3,59.3,30.05,NNE,31,3.4,3.4,81,0.00,CLR,,0.00,0.0,WeatherDisplay:10.37,2013-02-07 03:55:00,
2013-02-06 23:00:00,65.4,59.4,30.05,NNE,31,3.4,3.4,81,0.00,CLR,,0.00,0.0,WeatherDisplay:10.37,2013-02-07 04:00:00,
2013-02-06 23:05:00,65.3,59.3,30.05,NNE,31,3.4,3.4,81,0.00,CLR,,0.00,0.0,WeatherDisplay:10.37,2013-02-07 04:05:00,
2013-02-06 23:14:00,65.2,59.6,30.05,NNE,31,3.4,3.4,82,0.00,CLR,,0.00,0.0,WeatherDisplay:10.37,2013-02-07 04:14:00,
2013-02-06 23:19:00,64.9,59.3,30.05,NNE,31,2.3,2.3,82,0.00,CLR,,0.00,0.0,WeatherDisplay:10.37,2013-02-07 04:19:00,
2013-02-06 23:32:00,64.3,59.4,30.04,NNE,31,1.1,1.1,84,0.00,CLR,,0.00,0.0,WeatherDisplay:10.37,2013-02-07 04:32:00,
2013-02-06 23:49:00,63.6,59.0,30.05,NNE,31,0.0,0.0,85,0.00,CLR,,0.00,0.0,WeatherDisplay:10.37,2013-02-07 04:49:00,
2013-02-06 23:56:00,63.1,58.8,30.05,NNE,31,0.0,0.0,86,0.00,CLR,,0.00,0.0,WeatherDisplay:10.37,2013-02-07 04:56:00,